Time;durP1;ratioP1;P1;durP2;ratioP2;P2;SDS_P1;SDS_P2;PMS_P1;PMS_P2;Temp;Humidity;BMP_temperature;BMP_pressure;BME280_temperature;BME280_humidity;BME280_pressure;Samples;Min_cycle;Max_cycle;Signal;HPM_P1;HPM_P2
2022/07/21 00:00:25;;;;;;;4.85;4.03;;;;;;;;;;5053114;28;20223;-75
2022/07/21 00:02:53;;;;;;;4.93;4.40;;;;;;;;;;5054522;28;20198;-75
2022/07/21 00:05:22;;;;;;;4.70;4.20;;;;;;;;;;5054596;28;20214;-75
2022/07/21 00:07:51;;;;;;;4.45;3.95;;;;;;;;;;5054322;28;20684;-75
2022/07/21 00:10:20;;;;;;;4.32;3.92;;;;;;;;;;5054561;28;20230;-75
2022/07/21 00:12:48;;;;;;;4.05;3.75;;;;;;;;;;5054570;28;20565;-75
2022/07/21 00:15:18;;;;;;;4.68;3.75;;;;;;;;;;5054059;28;20203;-74
2022/07/21 00:17:49;;;;;;;4.28;3.88;;;;;;;;;;5046621;28;20232;-75
2022/07/21 00:20:18;;;;;;;5.57;3.40;;;;;;;;;;5034390;28;20637;-74
2022/07/21 00:22:47;;;;;;;3.60;3.30;;;;;;;;;;5034011;28;20601;-74
2022/07/21 00:25:16;;;;;;;6.38;3.35;;;;;;;;;;5034303;28;20212;-74
2022/07/21 00:27:45;;;;;;;3.63;2.90;;;;;;;;;;5051426;28;20233;-74
2022/07/21 00:30:14;;;;;;;5.30;3.15;;;;;;;;;;5054006;28;20203;-74
2022/07/21 00:32:42;;;;;;;4.38;3.30;;;;;;;;;;5053635;28;20203;-74
2022/07/21 00:35:13;;;;;;;3.63;3.20;;;;;;;;;;5053948;28;20656;-74
2022/07/21 00:37:41;;;;;;;4.10;3.70;;;;;;;;;;5053894;28;20223;-74
2022/07/21 00:40:11;;;;;;;4.15;3.75;;;;;;;;;;5053689;28;20203;-74
2022/07/21 00:42:39;;;;;;;5.28;4.32;;;;;;;;;;5053525;28;20218;-74
2022/07/21 00:45:08;;;;;;;4.95;4.13;;;;;;;;;;5053399;28;20210;-75
2022/07/21 00:47:37;;;;;;;7.93;5.30;;;;;;;;;;5053395;28;20652;-74
2022/07/21 00:50:07;;;;;;;5.82;5.32;;;;;;;;;;5053497;28;20199;-75
2022/07/21 00:52:37;;;;;;;8.55;6.13;;;;;;;;;;5053633;28;20223;-74
2022/07/21 00:55:06;;;;;;;12.05;6.60;;;;;;;;;;5053385;28;20210;-74
2022/07/21 00:57:34;;;;;;;11.75;6.97;;;;;;;;;;5053497;28;20695;-75
2022/07/21 01:00:04;;;;;;;7.68;6.95;;;;;;;;;;5053500;28;20199;-75
2022/07/21 01:02:36;;;;;;;8.43;7.63;;;;;;;;;;5053353;28;20187;-74
2022/07/21 01:05:05;;;;;;;8.80;7.88;;;;;;;;;;5052739;28;20187;-74
2022/07/21 01:07:33;;;;;;;9.98;8.98;;;;;;;;;;5053411;28;20220;-74
2022/07/21 01:10:04;;;;;;;10.60;9.10;;;;;;;;;;5053399;28;20214;-75
2022/07/21 01:12:32;;;;;;;12.82;9.48;;;;;;;;;;5053298;28;20216;-74
2022/07/21 01:15:01;;;;;;;11.13;9.93;;;;;;;;;;5053118;28;20207;-75
2022/07/21 01:17:29;;;;;;;12.93;11.50;;;;;;;;;;5053295;28;20726;-75
2022/07/21 01:19:58;;;;;;;13.48;10.82;;;;;;;;;;5053463;28;20207;-74
2022/07/21 01:22:28;;;;;;;12.63;10.77;;;;;;;;;;5053197;28;20616;-74
2022/07/21 01:24:56;;;;;;;12.45;11.30;;;;;;;;;;5053231;28;20203;-75
2022/07/21 01:27:25;;;;;;;12.50;11.20;;;;;;;;;;5053269;28;20599;-74
2022/07/21 01:29:54;;;;;;;13.68;11.38;;;;;;;;;;5053560;28;20553;-75
2022/07/21 01:32:22;;;;;;;15.55;11.98;;;;;;;;;;5053120;28;20230;-74
2022/07/21 01:34:51;;;;;;;13.77;11.98;;;;;;;;;;5052822;28;20215;-73
2022/07/21 01:37:22;;;;;;;13.57;11.43;;;;;;;;;;5052738;28;20231;-74
2022/07/21 01:42:34;;;;;;;16.88;12.30;;;;;;;;;;5019816;28;20206;-74
2022/07/21 01:45:03;;;;;;;12.70;11.40;;;;;;;;;;5052436;28;20207;-74
2022/07/21 01:47:32;;;;;;;13.02;11.75;;;;;;;;;;5052978;28;20565;-74
2022/07/21 01:50:00;;;;;;;12.88;11.60;;;;;;;;;;5052760;28;20223;-74
2022/07/21 01:52:28;;;;;;;14.13;11.68;;;;;;;;;;5053055;28;20227;-74
2022/07/21 01:54:58;;;;;;;13.63;12.07;;;;;;;;;;5053312;28;20260;-74
2022/07/21 01:57:27;;;;;;;14.65;12.05;;;;;;;;;;5052624;28;20226;-74
2022/07/21 01:59:55;;;;;;;12.85;11.43;;;;;;;;;;5052995;28;20203;-74
2022/07/21 02:02:23;;;;;;;14.25;12.45;;;;;;;;;;5052521;28;20203;-75
2022/07/21 02:04:52;;;;;;;14.45;12.40;;;;;;;;;;5053032;28;20199;-76
2022/07/21 02:07:20;;;;;;;17.92;13.05;;;;;;;;;;5052866;28;20234;-76
2022/07/21 02:09:49;;;;;;;15.27;13.48;;;;;;;;;;5052930;28;20228;-76
2022/07/21 02:12:19;;;;;;;16.90;14.10;;;;;;;;;;5052702;28;20227;-77
2022/07/21 02:14:47;;;;;;;16.10;14.45;;;;;;;;;;5052994;28;20210;-77
2022/07/21 02:17:15;;;;;;;16.15;13.32;;;;;;;;;;5055347;28;20219;-78
2022/07/21 02:19:44;;;;;;;15.35;13.75;;;;;;;;;;5056786;28;20207;-77
2022/07/21 02:22:12;;;;;;;15.52;13.88;;;;;;;;;;5056472;28;20202;-78
2022/07/21 02:24:41;;;;;;;16.15;12.85;;;;;;;;;;5056584;28;20202;-77
2022/07/21 02:27:09;;;;;;;14.00;12.60;;;;;;;;;;5056445;28;20227;-77
2022/07/21 02:29:39;;;;;;;13.63;11.70;;;;;;;;;;5056093;28;20206;-77
2022/07/21 02:32:08;;;;;;;12.93;11.23;;;;;;;;;;5056395;28;20560;-77
2022/07/21 02:34:36;;;;;;;13.88;11.80;;;;;;;;;;5055940;28;20214;-77
2022/07/21 02:37:04;;;;;;;14.65;11.10;;;;;;;;;;5056342;28;20230;-77
2022/07/21 02:39:33;;;;;;;13.15;10.45;;;;;;;;;;5056235;28;20207;-77
2022/07/21 02:42:01;;;;;;;12.63;10.57;;;;;;;;;;5056305;28;20214;-76
2022/07/21 02:44:31;;;;;;;13.80;11.02;;;;;;;;;;5056277;28;20679;-78
2022/07/21 02:47:01;;;;;;;12.35;11.10;;;;;;;;;;5055923;28;20277;-77
2022/07/21 02:49:30;;;;;;;13.20;10.98;;;;;;;;;;5055778;28;20222;-77
2022/07/21 02:51:58;;;;;;;14.75;11.82;;;;;;;;;;5056481;28;20227;-77
2022/07/21 02:54:27;;;;;;;13.40;12.07;;;;;;;;;;5056330;28;20663;-77
2022/07/21 02:56:55;;;;;;;12.27;11.07;;;;;;;;;;5056161;28;20238;-78
2022/07/21 02:59:24;;;;;;;11.82;10.60;;;;;;;;;;5057255;28;20199;-78
2022/07/21 03:01:52;;;;;;;12.38;11.13;;;;;;;;;;5056035;28;20307;-78
2022/07/21 03:04:22;;;;;;;11.73;10.63;;;;;;;;;;5056034;28;20207;-77
2022/07/21 03:06:50;;;;;;;12.38;11.07;;;;;;;;;;5056278;28;20222;-78
2022/07/21 03:09:19;;;;;;;12.45;11.23;;;;;;;;;;5055893;28;20213;-78
2022/07/21 03:11:47;;;;;;;12.82;11.48;;;;;;;;;;5055632;28;20218;-77
2022/07/21 03:14:16;;;;;;;12.45;11.15;;;;;;;;;;5056059;28;20207;-78
2022/07/21 03:16:44;;;;;;;13.43;11.52;;;;;;;;;;5055854;28;20296;-77
2022/07/21 03:19:13;;;;;;;12.45;10.68;;;;;;;;;;5055447;28;20207;-77
2022/07/21 03:21:43;;;;;;;11.88;10.55;;;;;;;;;;5056057;28;20667;-77
2022/07/21 03:24:11;;;;;;;14.05;10.70;;;;;;;;;;5055454;28;20257;-77
2022/07/21 03:26:40;;;;;;;11.27;10.18;;;;;;;;;;5040540;28;20602;-76
2022/07/21 03:29:09;;;;;;;11.45;9.80;;;;;;;;;;5037231;28;20208;-76
2022/07/21 03:31:37;;;;;;;12.13;9.77;;;;;;;;;;5055318;28;20202;-77
2022/07/21 03:34:06;;;;;;;11.40;10.30;;;;;;;;;;5055385;28;20575;-77
2022/07/21 03:36:34;;;;;;;11.32;10.10;;;;;;;;;;5035166;28;20306;-77
2022/07/21 03:39:04;;;;;;;11.73;10.05;;;;;;;;;;5035413;28;20207;-77
2022/07/21 03:41:33;;;;;;;10.40;9.40;;;;;;;;;;5054823;28;20207;-77
2022/07/21 03:44:01;;;;;;;12.70;10.63;;;;;;;;;;5047369;28;20634;-77
2022/07/21 03:46:30;;;;;;;10.95;9.75;;;;;;;;;;5035063;28;20647;-77
2022/07/21 03:48:58;;;;;;;11.77;10.18;;;;;;;;;;5034839;28;20206;-77
2022/07/21 03:51:27;;;;;;;11.32;9.65;;;;;;;;;;5035184;28;20563;-77
2022/07/21 03:53:58;;;;;;;10.70;9.65;;;;;;;;;;5038304;28;20715;-76
2022/07/21 03:56:28;;;;;;;12.07;10.88;;;;;;;;;;5054653;28;20231;-76
2022/07/21 03:58:56;;;;;;;11.07;9.88;;;;;;;;;;5054393;28;20210;-76
2022/07/21 04:01:25;;;;;;;12.10;10.45;;;;;;;;;;5054296;28;20219;-77
2022/07/21 04:03:53;;;;;;;10.60;9.52;;;;;;;;;;5054679;28;20683;-77
2022/07/21 04:06:22;;;;;;;10.55;8.93;;;;;;;;;;5053944;28;20688;-76
2022/07/21 04:08:51;;;;;;;10.75;8.90;;;;;;;;;;5054443;28;20567;-77
2022/07/21 04:11:19;;;;;;;11.27;9.25;;;;;;;;;;5054097;28;20203;-76
2022/07/21 04:13:49;;;;;;;10.98;8.77;;;;;;;;;;5054417;28;20230;-76
2022/07/21 04:16:18;;;;;;;13.40;10.18;;;;;;;;;;5054762;28;20702;-76
2022/07/21 04:18:46;;;;;;;12.17;10.73;;;;;;;;;;5053908;28;20206;-77
2022/07/21 04:21:15;;;;;;;12.13;10.65;;;;;;;;;;5050070;28;20671;-76
2022/07/21 04:23:44;;;;;;;11.95;10.60;;;;;;;;;;5054307;28;20206;-76
2022/07/21 04:26:12;;;;;;;12.80;11.50;;;;;;;;;;5054162;28;20239;-77
2022/07/21 04:28:40;;;;;;;12.27;10.93;;;;;;;;;;5054381;28;20210;-76
2022/07/21 04:31:10;;;;;;;12.90;11.00;;;;;;;;;;5053451;28;20278;-76
2022/07/21 04:33:39;;;;;;;10.83;9.67;;;;;;;;;;5054529;28;20619;-76
2022/07/21 04:36:08;;;;;;;11.07;9.97;;;;;;;;;;5054269;28;20626;-76
2022/07/21 04:38:36;;;;;;;11.73;9.87;;;;;;;;;;5054031;28;20211;-76
2022/07/21 04:41:04;;;;;;;12.33;9.73;;;;;;;;;;5052734;28;20203;-76
2022/07/21 04:43:33;;;;;;;13.27;10.17;;;;;;;;;;5053455;28;20206;-76
2022/07/21 04:46:02;;;;;;;11.75;10.15;;;;;;;;;;5053658;28;20226;-76
2022/07/21 04:48:31;;;;;;;10.85;9.75;;;;;;;;;;5053639;28;20215;-76
2022/07/21 04:51:00;;;;;;;12.63;9.82;;;;;;;;;;5053648;28;20206;-76
2022/07/21 04:53:28;;;;;;;11.25;9.88;;;;;;;;;;5053373;28;20216;-77
2022/07/21 04:55:57;;;;;;;10.73;9.63;;;;;;;;;;5053305;28;20227;-77
2022/07/21 04:58:25;;;;;;;10.48;9.35;;;;;;;;;;5049513;28;20211;-76
2022/07/21 05:00:54;;;;;;;10.15;9.15;;;;;;;;;;5037472;28;20649;-76
2022/07/21 05:03:22;;;;;;;11.27;9.45;;;;;;;;;;5050822;28;20191;-76
2022/07/21 05:05:52;;;;;;;10.52;9.45;;;;;;;;;;5053137;28;20276;-76
2022/07/21 05:08:21;;;;;;;11.70;9.82;;;;;;;;;;5053575;28;20210;-78
2022/07/21 05:10:49;;;;;;;10.75;9.65;;;;;;;;;;5055144;28;20678;-78
2022/07/21 05:13:17;;;;;;;11.57;9.70;;;;;;;;;;5054242;28;20703;-78
2022/07/21 05:15:46;;;;;;;13.27;10.63;;;;;;;;;;5054314;28;20199;-78
2022/07/21 05:18:14;;;;;;;12.05;10.65;;;;;;;;;;5053721;28;20218;-78
2022/07/21 05:20:43;;;;;;;13.25;10.27;;;;;;;;;;5053682;28;20694;-77
2022/07/21 05:23:13;;;;;;;12.23;10.93;;;;;;;;;;5055529;28;20199;-75
2022/07/21 05:25:41;;;;;;;11.70;10.65;;;;;;;;;;5056853;28;20580;-75
2022/07/21 05:28:09;;;;;;;12.95;11.25;;;;;;;;;;5056692;28;20561;-75
2022/07/21 05:30:38;;;;;;;13.82;11.60;;;;;;;;;;5050927;28;20609;-75
2022/07/21 05:33:06;;;;;;;12.05;10.95;;;;;;;;;;5052850;28;20710;-75
2022/07/21 05:35:35;;;;;;;12.88;11.38;;;;;;;;;;5063573;28;20221;-75
2022/07/21 05:38:04;;;;;;;13.68;11.55;;;;;;;;;;5058668;28;20196;-75
2022/07/21 05:40:33;;;;;;;15.50;11.25;;;;;;;;;;5055475;28;20206;-75
2022/07/21 05:43:02;;;;;;;16.50;12.88;;;;;;;;;;5058121;28;20256;-75
2022/07/21 05:45:30;;;;;;;14.77;11.57;;;;;;;;;;5060315;28;20252;-75
2022/07/21 05:47:59;;;;;;;16.02;12.40;;;;;;;;;;5050646;28;20227;-75
2022/07/21 05:50:27;;;;;;;18.25;13.52;;;;;;;;;;5054376;28;20214;-75
2022/07/21 05:52:56;;;;;;;8.18;7.38;;;;;;;;;;5055732;28;20655;-74
2022/07/21 05:55:24;;;;;;;4.93;4.20;;;;;;;;;;5056698;28;20206;-76
2022/07/21 05:57:54;;;;;;;4.47;4.07;;;;;;;;;;5053026;28;20695;-76
2022/07/21 06:00:23;;;;;;;7.13;4.97;;;;;;;;;;5040190;28;20567;-75
2022/07/21 06:02:51;;;;;;;7.97;5.70;;;;;;;;;;5056977;28;20575;-75
2022/07/21 06:05:19;;;;;;;5.45;4.95;;;;;;;;;;5056773;28;20568;-75
2022/07/21 06:07:48;;;;;;;5.97;5.22;;;;;;;;;;5055481;28;20664;-75
2022/07/21 06:10:17;;;;;;;6.38;5.60;;;;;;;;;;5047131;28;20211;-75
2022/07/21 06:12:50;;;;;;;4.95;4.55;;;;;;;;;;5036441;28;20204;-75
2022/07/21 06:15:20;;;;;;;5.25;4.57;;;;;;;;;;5045874;28;20586;-75
2022/07/21 06:17:48;;;;;;;3.72;3.17;;;;;;;;;;5055348;28;20591;-75
2022/07/21 06:20:17;;;;;;;3.42;3.13;;;;;;;;;;5056269;28;20250;-75
2022/07/21 06:22:45;;;;;;;2.92;2.63;;;;;;;;;;5056195;28;20610;-75
2022/07/21 06:25:14;;;;;;;3.80;2.60;;;;;;;;;;5059178;28;20190;-75
2022/07/21 06:27:42;;;;;;;2.72;2.50;;;;;;;;;;5054824;28;20230;-75
2022/07/21 06:30:11;;;;;;;3.13;2.83;;;;;;;;;;5056820;28;20226;-76
2022/07/21 06:32:41;;;;;;;2.97;2.60;;;;;;;;;;5056240;28;20207;-75
2022/07/21 06:35:10;;;;;;;2.75;2.50;;;;;;;;;;5054027;28;20223;-76
2022/07/21 06:37:38;;;;;;;2.28;2.08;;;;;;;;;;5067556;28;20722;-75
2022/07/21 06:40:08;;;;;;;2.65;1.80;;;;;;;;;;5069646;28;20253;-75
2022/07/21 06:42:36;;;;;;;3.67;1.92;;;;;;;;;;5053744;28;20656;-74
2022/07/21 06:45:05;;;;;;;3.00;2.67;;;;;;;;;;5053587;28;20202;-74
2022/07/21 06:47:34;;;;;;;3.60;2.47;;;;;;;;;;5055627;28;20236;-74
2022/07/21 06:50:03;;;;;;;3.10;2.85;;;;;;;;;;5056060;28;20203;-75
2022/07/21 06:52:33;;;;;;;2.50;2.30;;;;;;;;;;5055718;28;20342;-74
2022/07/21 06:55:02;;;;;;;2.55;2.35;;;;;;;;;;5057881;28;20218;-74
2022/07/21 06:57:30;;;;;;;3.05;2.33;;;;;;;;;;5065407;28;20234;-74
2022/07/21 06:59:59;;;;;;;2.60;2.40;;;;;;;;;;5054024;28;20660;-75
2022/07/21 07:02:27;;;;;;;2.05;1.88;;;;;;;;;;5064368;28;20581;-74
2022/07/21 07:04:56;;;;;;;2.50;2.30;;;;;;;;;;5054104;28;20205;-74
2022/07/21 07:07:34;;;;;;;3.08;2.55;;;;;;;;;;5063910;28;20229;-74
2022/07/21 07:10:03;;;;;;;2.78;2.42;;;;;;;;;;5059594;28;20199;-74
2022/07/21 07:12:31;;;;;;;2.70;2.13;;;;;;;;;;5061100;28;20614;-74
2022/07/21 07:15:20;;;;;;;2.80;2.60;;;;;;;;;;5057957;28;20273;-74
2022/07/21 07:17:48;;;;;;;2.50;2.30;;;;;;;;;;5055768;28;20223;-74
2022/07/21 07:20:17;;;;;;;2.80;2.60;;;;;;;;;;5057124;28;20206;-74
2022/07/21 07:22:46;;;;;;;3.42;2.72;;;;;;;;;;5067878;28;20626;-74
2022/07/21 07:25:16;;;;;;;4.22;2.97;;;;;;;;;;5068801;28;20195;-74
2022/07/21 07:27:45;;;;;;;3.63;3.00;;;;;;;;;;5061153;28;20269;-75
2022/07/21 07:30:15;;;;;;;3.70;3.13;;;;;;;;;;5056758;28;20710;-75
2022/07/21 07:32:44;;;;;;;4.72;3.20;;;;;;;;;;5048181;28;20218;-74
2022/07/21 07:35:12;;;;;;;4.30;3.55;;;;;;;;;;5060037;28;20222;-75
2022/07/21 07:37:42;;;;;;;3.92;3.55;;;;;;;;;;5067575;28;20227;-74
2022/07/21 07:40:15;;;;;;;4.15;3.78;;;;;;;;;;5065805;28;20202;-74
2022/07/21 07:42:44;;;;;;;3.70;3.47;;;;;;;;;;5052530;28;20286;-74
2022/07/21 07:45:13;;;;;;;4.15;3.85;;;;;;;;;;5054903;28;20199;-74
2022/07/21 07:47:42;;;;;;;4.43;4.05;;;;;;;;;;5064344;28;20226;-74
2022/07/21 07:50:12;;;;;;;4.53;4.13;;;;;;;;;;5055168;28;20203;-74
2022/07/21 07:52:42;;;;;;;4.72;4.32;;;;;;;;;;5052813;28;20582;-74
2022/07/21 07:55:11;;;;;;;5.07;4.57;;;;;;;;;;5059262;28;20563;-74
2022/07/21 07:57:42;;;;;;;5.43;5.03;;;;;;;;;;5048749;28;20230;-74
2022/07/21 08:00:11;;;;;;;5.70;5.20;;;;;;;;;;5057714;28;20199;-74
2022/07/21 08:03:01;;;;;;;6.20;5.70;;;;;;;;;;5046140;28;20199;-74
2022/07/21 08:05:29;;;;;;;6.47;5.97;;;;;;;;;;5058482;28;20644;-74
2022/07/21 08:07:57;;;;;;;7.13;6.55;;;;;;;;;;5055052;28;20227;-73
2022/07/21 08:10:26;;;;;;;7.85;7.22;;;;;;;;;;5055349;28;20638;-73
2022/07/21 08:13:13;;;;;;;8.95;8.15;;;;;;;;;;5071635;28;20206;-75
2022/07/21 08:15:42;;;;;;;10.55;9.63;;;;;;;;;;5045110;28;20587;-76
2022/07/21 08:18:11;;;;;;;10.82;9.82;;;;;;;;;;5045780;28;20203;-75
2022/07/21 08:20:40;;;;;;;11.27;10.25;;;;;;;;;;5051199;28;20558;-76
2022/07/21 08:23:08;;;;;;;11.20;10.10;;;;;;;;;;5052973;28;20207;-76
2022/07/21 08:25:40;;;;;;;11.13;10.00;;;;;;;;;;5066317;28;20199;-75
2022/07/21 08:28:08;;;;;;;12.38;11.27;;;;;;;;;;5056899;28;20207;-74
2022/07/21 08:30:38;;;;;;;12.25;11.15;;;;;;;;;;5065162;28;20555;-75
2022/07/21 08:33:07;;;;;;;12.43;11.40;;;;;;;;;;5056838;28;20276;-76
2022/07/21 08:35:42;;;;;;;13.57;12.48;;;;;;;;;;5052023;28;20223;-76
2022/07/21 08:38:19;;;;;;;14.52;13.18;;;;;;;;;;5042659;28;20245;-76
2022/07/21 08:40:51;;;;;;;14.43;13.18;;;;;;;;;;5062303;28;20204;-74
2022/07/21 08:43:19;;;;;;;15.63;14.15;;;;;;;;;;5053194;28;20210;-75
2022/07/21 08:45:49;;;;;;;15.57;14.18;;;;;;;;;;5051471;28;20261;-75
2022/07/21 08:48:21;;;;;;;15.32;14.02;;;;;;;;;;5057970;28;20659;-74
2022/07/21 08:50:50;;;;;;;14.98;13.65;;;;;;;;;;5059088;28;20264;-75
2022/07/21 08:53:18;;;;;;;14.50;13.23;;;;;;;;;;5053771;28;20234;-75
2022/07/21 08:55:47;;;;;;;14.88;13.55;;;;;;;;;;5057090;28;20218;-74
2022/07/21 08:58:15;;;;;;;14.25;12.95;;;;;;;;;;5073356;28;20202;-73
2022/07/21 09:00:45;;;;;;;14.93;13.63;;;;;;;;;;5058679;28;20203;-75
2022/07/21 09:03:17;;;;;;;14.65;13.35;;;;;;;;;;5052667;28;20287;-74
2022/07/21 09:06:00;;;;;;;15.20;13.80;;;;;;;;;;5034334;28;20279;-75
2022/07/21 09:08:30;;;;;;;16.10;14.70;;;;;;;;;;5043180;28;20664;-74
2022/07/21 09:11:09;;;;;;;15.15;13.85;;;;;;;;;;5068278;28;20667;-74
2022/07/21 09:13:38;;;;;;;15.77;14.48;;;;;;;;;;5060561;28;20876;-75
2022/07/21 09:16:06;;;;;;;15.68;14.40;;;;;;;;;;5052533;28;20223;-75
2022/07/21 09:18:47;;;;;;;15.55;14.23;;;;;;;;;;5044001;28;20206;-75
2022/07/21 09:21:17;;;;;;;15.85;14.55;;;;;;;;;;5038289;28;20210;-74
2022/07/21 09:23:45;;;;;;;15.52;14.25;;;;;;;;;;5047071;28;20200;-75
2022/07/21 09:26:14;;;;;;;15.23;13.95;;;;;;;;;;5033454;28;20227;-75
2022/07/21 09:28:42;;;;;;;16.05;14.63;;;;;;;;;;5053382;28;20206;-75
2022/07/21 09:31:11;;;;;;;14.90;13.63;;;;;;;;;;5052070;28;20597;-75
2022/07/21 09:33:42;;;;;;;14.88;13.55;;;;;;;;;;5053192;28;20198;-75
2022/07/21 09:36:12;;;;;;;15.60;14.23;;;;;;;;;;5061360;28;20222;-75
2022/07/21 09:38:44;;;;;;;13.60;12.50;;;;;;;;;;5049673;28;20207;-74
2022/07/21 09:41:21;;;;;;;14.48;13.27;;;;;;;;;;5055944;28;20203;-75
2022/07/21 09:43:50;;;;;;;14.05;12.77;;;;;;;;;;5052741;28;20575;-75
2022/07/21 09:46:20;;;;;;;14.35;13.00;;;;;;;;;;5033186;28;20246;-75
2022/07/21 09:48:52;;;;;;;13.63;12.48;;;;;;;;;;5032800;28;20255;-75
2022/07/21 09:51:43;;;;;;;12.90;11.90;;;;;;;;;;5033957;28;20665;-75
2022/07/21 09:54:12;;;;;;;14.02;12.80;;;;;;;;;;5053458;28;20285;-75
2022/07/21 09:56:42;;;;;;;13.00;11.90;;;;;;;;;;5072899;28;20238;-75
2022/07/21 09:59:12;;;;;;;12.27;11.27;;;;;;;;;;5054815;28;20195;-75
2022/07/21 10:01:41;;;;;;;12.40;11.40;;;;;;;;;;5052829;28;20668;-75
2022/07/21 10:04:11;;;;;;;12.00;10.88;;;;;;;;;;5053096;28;20589;-74
2022/07/21 10:06:40;;;;;;;10.82;9.93;;;;;;;;;;5052297;28;20227;-75
2022/07/21 10:09:10;;;;;;;10.63;9.73;;;;;;;;;;5052553;28;20290;-73
2022/07/21 10:11:40;;;;;;;11.25;10.35;;;;;;;;;;5039739;28;20203;-75
2022/07/21 10:14:10;;;;;;;10.75;9.75;;;;;;;;;;5032908;28;20696;-75
2022/07/21 10:16:38;;;;;;;11.63;10.60;;;;;;;;;;5044678;28;20231;-75
2022/07/21 10:19:22;;;;;;;12.38;11.30;;;;;;;;;;5052506;28;20714;-75
2022/07/21 10:21:54;;;;;;;11.32;10.43;;;;;;;;;;5052424;28;20203;-75
2022/07/21 10:24:23;;;;;;;11.63;10.52;;;;;;;;;;5052140;28;20199;-75
2022/07/21 10:27:06;;;;;;;12.43;11.38;;;;;;;;;;5051445;28;20219;-75
2022/07/21 10:29:52;;;;;;;11.95;11.05;;;;;;;;;;5036089;28;20191;-75
2022/07/21 10:32:28;;;;;;;12.18;11.07;;;;;;;;;;5041001;28;20200;-72
2022/07/21 10:34:59;;;;;;;11.88;10.80;;;;;;;;;;5038251;28;20217;-75
2022/07/21 10:37:49;;;;;;;12.40;11.20;;;;;;;;;;5052760;28;20596;-75
2022/07/21 10:40:36;;;;;;;12.25;11.25;;;;;;;;;;5056288;28;20207;-75
2022/07/21 10:43:23;;;;;;;12.13;11.13;;;;;;;;;;5055431;28;20222;-75
2022/07/21 10:45:52;;;;;;;12.65;11.55;;;;;;;;;;5055787;28;20195;-74
2022/07/21 10:48:39;;;;;;;12.07;10.98;;;;;;;;;;5055747;28;20566;-75
2022/07/21 10:51:11;;;;;;;10.38;9.63;;;;;;;;;;5051861;28;20198;-74
2022/07/21 10:53:40;;;;;;;10.48;9.57;;;;;;;;;;5055977;28;20457;-74
2022/07/21 10:56:09;;;;;;;10.80;9.80;;;;;;;;;;5054644;28;20227;-74
2022/07/21 10:58:38;;;;;;;10.30;9.50;;;;;;;;;;5047670;28;20219;-75
2022/07/21 11:01:08;;;;;;;10.90;10.00;;;;;;;;;;5052000;28;20203;-75
2022/07/21 11:03:45;;;;;;;11.45;10.57;;;;;;;;;;5039416;28;20294;-74
2022/07/21 11:06:16;;;;;;;10.48;9.48;;;;;;;;;;5052640;28;20223;-75
2022/07/21 11:08:45;;;;;;;10.70;9.80;;;;;;;;;;5055099;28;20199;-73
2022/07/21 11:11:15;;;;;;;9.90;9.10;;;;;;;;;;5039213;28;20208;-74
2022/07/21 11:13:59;;;;;;;10.10;9.30;;;;;;;;;;5054995;28;20210;-75
2022/07/21 11:16:43;;;;;;;10.15;9.35;;;;;;;;;;5056921;28;20234;-75
2022/07/21 11:19:26;;;;;;;10.00;9.15;;;;;;;;;;5054696;28;20543;-75
2022/07/21 11:21:57;;;;;;;9.43;8.60;;;;;;;;;;5055293;28;20187;-75
2022/07/21 11:24:26;;;;;;;8.23;7.53;;;;;;;;;;5055024;28;20195;-75
2022/07/21 11:26:55;;;;;;;7.30;6.60;;;;;;;;;;5055127;28;20223;-75
2022/07/21 11:29:24;;;;;;;7.63;6.93;;;;;;;;;;5055304;28;20207;-75
2022/07/21 11:31:53;;;;;;;8.15;7.45;;;;;;;;;;5046599;28;20208;-75
2022/07/21 11:34:22;;;;;;;8.00;7.10;;;;;;;;;;5035341;28;20212;-75
2022/07/21 11:37:00;;;;;;;7.57;6.95;;;;;;;;;;5041038;28;20227;-73
2022/07/21 11:39:49;;;;;;;7.45;6.80;;;;;;;;;;5055033;28;20248;-73
2022/07/21 11:42:20;;;;;;;7.47;6.80;;;;;;;;;;5054411;28;20206;-73
2022/07/21 11:44:56;;;;;;;8.20;7.50;;;;;;;;;;5055249;28;20237;-74
2022/07/21 11:47:26;;;;;;;7.50;6.75;;;;;;;;;;5061464;28;20219;-73
2022/07/21 11:49:55;;;;;;;7.75;7.10;;;;;;;;;;5052059;28;20195;-73
2022/07/21 11:52:28;;;;;;;7.93;7.15;;;;;;;;;;5052448;28;20569;-74
2022/07/21 11:54:57;;;;;;;13.63;8.85;;;;;;;;;;5056640;28;20202;-77
2022/07/21 11:57:28;;;;;;;20.58;8.95;;;;;;;;;;5061496;28;20233;-76
2022/07/21 11:59:58;;;;;;;5.45;2.72;;;;;;;;;;5055016;28;20758;-75
2022/07/21 12:02:27;;;;;;;2.80;2.47;;;;;;;;;;5055997;28;20207;-74
2022/07/21 12:04:58;;;;;;;3.05;2.60;;;;;;;;;;5056265;28;20210;-75
2022/07/21 12:07:30;;;;;;;2.95;2.70;;;;;;;;;;5051992;28;20586;-74
2022/07/21 12:09:59;;;;;;;2.78;2.40;;;;;;;;;;5057779;28;20570;-75
2022/07/21 12:12:32;;;;;;;4.93;4.53;;;;;;;;;;5062479;28;20297;-74
2022/07/21 12:15:12;;;;;;;7.65;6.95;;;;;;;;;;5055760;28;20203;-74
2022/07/21 12:17:44;;;;;;;9.68;8.80;;;;;;;;;;5048431;28;20223;-74
2022/07/21 12:20:13;;;;;;;10.82;9.93;;;;;;;;;;5054774;28;20206;-75
2022/07/21 12:22:46;;;;;;;8.65;7.95;;;;;;;;;;5051823;28;20211;-75
2022/07/21 12:25:15;;;;;;;8.38;7.68;;;;;;;;;;5053718;28;20207;-75
2022/07/21 12:27:49;;;;;;;9.35;8.55;;;;;;;;;;5054182;28;20226;-75
2022/07/21 12:30:33;;;;;;;9.52;8.73;;;;;;;;;;5053086;28;20199;-75
2022/07/21 12:33:06;;;;;;;9.95;9.05;;;;;;;;;;5051689;28;20202;-75
2022/07/21 12:35:34;;;;;;;9.95;9.15;;;;;;;;;;5052374;28;20680;-76
2022/07/21 12:38:07;;;;;;;10.38;9.48;;;;;;;;;;5051325;28;20227;-75
2022/07/21 12:40:36;;;;;;;9.93;9.05;;;;;;;;;;5060598;28;20199;-75
2022/07/21 12:43:06;;;;;;;10.80;9.80;;;;;;;;;;5052954;28;20290;-75
2022/07/21 12:45:45;;;;;;;11.30;10.38;;;;;;;;;;5051059;28;20589;-76
2022/07/21 12:48:15;;;;;;;12.75;11.45;;;;;;;;;;5054314;28;20194;-76
2022/07/21 12:50:44;;;;;;;15.43;11.75;;;;;;;;;;5054244;28;20290;-75
2022/07/21 12:53:14;;;;;;;13.55;12.32;;;;;;;;;;5053112;28;20207;-75
2022/07/21 12:55:42;;;;;;;9.20;8.35;;;;;;;;;;5058493;28;20679;-75
2022/07/21 12:58:11;;;;;;;8.02;7.32;;;;;;;;;;5053308;28;20223;-75
2022/07/21 13:00:40;;;;;;;8.82;6.75;;;;;;;;;;4703173;28;10000256;-75
2022/07/21 13:03:08;;;;;;;9.23;7.70;;;;;;;;;;5048663;28;20290;-74
2022/07/21 13:05:38;;;;;;;8.60;7.90;;;;;;;;;;5042267;28;20211;-75
2022/07/21 13:08:21;;;;;;;9.70;8.80;;;;;;;;;;5051572;28;20657;-75
2022/07/21 13:10:51;;;;;;;10.02;9.05;;;;;;;;;;5045510;28;20614;-76
2022/07/21 13:13:20;;;;;;;10.57;9.68;;;;;;;;;;5050962;28;20203;-75
2022/07/21 13:15:49;;;;;;;10.75;9.85;;;;;;;;;;5051340;28;20207;-74
2022/07/21 13:18:17;;;;;;;12.05;10.95;;;;;;;;;;5051225;28;20602;-75
2022/07/21 13:20:46;;;;;;;12.18;11.00;;;;;;;;;;5049180;28;20218;-76
2022/07/21 13:23:15;;;;;;;13.13;11.93;;;;;;;;;;5049259;28;20202;-76
2022/07/21 13:25:43;;;;;;;13.20;12.05;;;;;;;;;;5044179;28;20195;-76
2022/07/21 13:28:13;;;;;;;11.80;10.70;;;;;;;;;;5046690;28;20203;-75
2022/07/21 13:30:42;;;;;;;13.73;12.40;;;;;;;;;;5051081;28;20199;-76
2022/07/21 13:33:10;;;;;;;12.75;11.55;;;;;;;;;;5050823;28;20652;-77
2022/07/21 13:35:39;;;;;;;11.65;10.60;;;;;;;;;;5043707;28;20211;-75
2022/07/21 13:38:07;;;;;;;11.98;10.98;;;;;;;;;;5037444;28;20296;-76
2022/07/21 13:40:36;;;;;;;12.30;11.27;;;;;;;;;;5047813;28;20215;-75
2022/07/21 13:43:26;;;;;;;12.60;11.32;;;;;;;;;;5044054;28;20675;-76
2022/07/21 13:46:06;;;;;;;12.77;11.68;;;;;;;;;;5061140;28;21726;-76
2022/07/21 13:48:41;;;;;;;12.40;11.30;;;;;;;;;;5044335;28;20230;-76
2022/07/21 13:51:12;;;;;;;11.95;10.95;;;;;;;;;;5062836;28;20562;-76
2022/07/21 13:53:40;;;;;;;12.38;11.27;;;;;;;;;;5070827;28;20205;-76
2022/07/21 13:56:09;;;;;;;13.45;12.25;;;;;;;;;;5044720;28;20223;-76
2022/07/21 13:58:40;;;;;;;13.65;12.45;;;;;;;;;;5047980;28;20238;-76
2022/07/21 14:01:08;;;;;;;13.88;12.55;;;;;;;;;;5050985;28;20225;-75
2022/07/21 14:03:37;;;;;;;14.07;12.95;;;;;;;;;;5046267;28;20233;-76
2022/07/21 14:06:06;;;;;;;15.40;14.07;;;;;;;;;;5052826;28;20277;-76
2022/07/21 14:08:35;;;;;;;13.05;11.77;;;;;;;;;;5044813;28;20246;-76
2022/07/21 14:11:04;;;;;;;12.07;11.00;;;;;;;;;;5050752;28;20207;-76
2022/07/21 14:13:33;;;;;;;11.25;10.30;;;;;;;;;;5042871;28;20577;-76
2022/07/21 14:16:04;;;;;;;10.68;9.77;;;;;;;;;;5053612;28;20227;-76
2022/07/21 14:18:33;;;;;;;11.70;10.70;;;;;;;;;;5041402;28;20219;-75
2022/07/21 14:26:42;;;;;;;8.45;7.82;;;;;;;;;;5057844;28;20685;-76
2022/07/21 14:29:13;;;;;;;8.73;7.93;;;;;;;;;;5055409;28;20419;-76
2022/07/21 14:31:43;;;;;;;9.50;8.70;;;;;;;;;;5049949;28;20191;-76
2022/07/21 14:34:12;;;;;;;8.95;8.15;;;;;;;;;;5059912;28;20252;-76
2022/07/21 14:36:40;;;;;;;8.52;7.72;;;;;;;;;;5055386;28;20222;-76
2022/07/21 14:39:08;;;;;;;8.68;7.85;;;;;;;;;;5055620;28;20265;-75
2022/07/21 14:41:37;;;;;;;8.25;7.60;;;;;;;;;;5045586;28;20207;-76
2022/07/21 14:44:05;;;;;;;8.70;8.00;;;;;;;;;;5051186;28;20258;-76
2022/07/21 14:46:34;;;;;;;7.93;7.15;;;;;;;;;;5035390;28;20238;-76
2022/07/21 14:49:04;;;;;;;7.28;6.57;;;;;;;;;;5051056;28;20206;-75
2022/07/21 14:51:39;;;;;;;5.38;4.85;;;;;;;;;;5056064;28;20183;-77
2022/07/21 14:54:09;;;;;;;4.00;3.60;;;;;;;;;;5055591;28;20282;-76